sensor_id;sensor_type;location;lat;lon;timestamp;P1;durP1;ratioP1;P2;durP2;ratioP2
2558;SDS011;1289;53.488;10.006;2023-05-02T00:00:16;14.77;;;10.40;;
2558;SDS011;1289;53.488;10.006;2023-05-02T00:02:43;17.53;;;13.07;;
2558;SDS011;1289;53.488;10.006;2023-05-02T00:05:10;12.93;;;10.40;;
2558;SDS011;1289;53.488;10.006;2023-05-02T00:07:36;16.63;;;12.17;;
2558;SDS011;1289;53.488;10.006;2023-05-02T00:10:03;13.87;;;11.10;;
2558;SDS011;1289;53.488;10.006;2023-05-02T00:12:32;15.23;;;11.87;;
2558;SDS011;1289;53.488;10.006;2023-05-02T00:14:58;13.27;;;11.87;;
2558;SDS011;1289;53.488;10.006;2023-05-02T00:17:25;13.40;;;11.87;;
2558;SDS011;1289;53.488;10.006;2023-05-02T00:19:51;14.07;;;11.97;;
2558;SDS011;1289;53.488;10.006;2023-05-02T00:22:18;17.07;;;12.80;;
2558;SDS011;1289;53.488;10.006;2023-05-02T00:24:45;20.57;;;13.90;;
2558;SDS011;1289;53.488;10.006;2023-05-02T00:27:11;20.00;;;15.77;;
2558;SDS011;1289;53.488;10.006;2023-05-02T00:29:40;17.80;;;14.77;;
2558;SDS011;1289;53.488;10.006;2023-05-02T00:32:06;20.17;;;16.47;;
2558;SDS011;1289;53.488;10.006;2023-05-02T00:34:33;18.70;;;14.83;;
2558;SDS011;1289;53.488;10.006;2023-05-02T00:36:59;18.20;;;14.57;;
2558;SDS011;1289;53.488;10.006;2023-05-02T00:39:26;22.67;;;16.50;;
2558;SDS011;1289;53.488;10.006;2023-05-02T00:41:55;23.87;;;17.00;;
2558;SDS011;1289;53.488;10.006;2023-05-02T00:44:22;21.60;;;15.90;;
2558;SDS011;1289;53.488;10.006;2023-05-02T00:46:50;22.53;;;16.27;;
2558;SDS011;1289;53.488;10.006;2023-05-02T00:49:17;21.77;;;17.27;;
2558;SDS011;1289;53.488;10.006;2023-05-02T00:51:44;19.77;;;14.93;;
2558;SDS011;1289;53.488;10.006;2023-05-02T00:54:10;19.57;;;16.10;;
2558;SDS011;1289;53.488;10.006;2023-05-02T00:56:38;19.37;;;16.77;;
2558;SDS011;1289;53.488;10.006;2023-05-02T00:59:04;20.83;;;15.30;;
2558;SDS011;1289;53.488;10.006;2023-05-02T01:01:35;23.20;;;16.47;;
2558;SDS011;1289;53.488;10.006;2023-05-02T01:04:09;22.07;;;16.33;;
2558;SDS011;1289;53.488;10.006;2023-05-02T01:06:47;22.63;;;16.93;;
2558;SDS011;1289;53.488;10.006;2023-05-02T01:09:22;22.43;;;17.03;;
2558;SDS011;1289;53.488;10.006;2023-05-02T01:11:57;21.67;;;17.10;;
2558;SDS011;1289;53.488;10.006;2023-05-02T01:14:28;23.00;;;17.40;;
2558;SDS011;1289;53.488;10.006;2023-05-02T01:16:56;23.70;;;16.13;;
2558;SDS011;1289;53.488;10.006;2023-05-02T01:19:31;22.77;;;16.90;;
2558;SDS011;1289;53.488;10.006;2023-05-02T01:21:59;28.37;;;18.77;;
2558;SDS011;1289;53.488;10.006;2023-05-02T01:24:28;24.50;;;18.97;;
2558;SDS011;1289;53.488;10.006;2023-05-02T01:27:00;24.50;;;18.47;;
2558;SDS011;1289;53.488;10.006;2023-05-02T01:29:33;28.57;;;21.20;;
2558;SDS011;1289;53.488;10.006;2023-05-02T01:32:02;26.60;;;20.27;;
2558;SDS011;1289;53.488;10.006;2023-05-02T01:34:29;24.60;;;20.00;;
2558;SDS011;1289;53.488;10.006;2023-05-02T01:36:57;26.73;;;20.80;;
2558;SDS011;1289;53.488;10.006;2023-05-02T01:39:24;26.30;;;20.70;;
2558;SDS011;1289;53.488;10.006;2023-05-02T01:41:53;28.70;;;20.37;;
2558;SDS011;1289;53.488;10.006;2023-05-02T01:44:21;29.90;;;21.10;;
2558;SDS011;1289;53.488;10.006;2023-05-02T01:46:50;28.10;;;20.90;;
2558;SDS011;1289;53.488;10.006;2023-05-02T01:49:19;25.23;;;17.13;;
2558;SDS011;1289;53.488;10.006;2023-05-02T01:51:47;17.37;;;13.23;;
2558;SDS011;1289;53.488;10.006;2023-05-02T01:54:15;21.27;;;15.50;;
2558;SDS011;1289;53.488;10.006;2023-05-02T01:56:42;19.20;;;15.40;;
2558;SDS011;1289;53.488;10.006;2023-05-02T01:59:11;18.30;;;12.67;;
2558;SDS011;1289;53.488;10.006;2023-05-02T02:01:39;19.50;;;12.67;;
2558;SDS011;1289;53.488;10.006;2023-05-02T02:04:09;14.30;;;10.80;;
2558;SDS011;1289;53.488;10.006;2023-05-02T02:06:36;14.67;;;10.73;;
2558;SDS011;1289;53.488;10.006;2023-05-02T02:09:04;12.33;;;10.37;;
2558;SDS011;1289;53.488;10.006;2023-05-02T02:11:33;14.77;;;10.33;;
2558;SDS011;1289;53.488;10.006;2023-05-02T02:14:01;14.07;;;10.77;;
2558;SDS011;1289;53.488;10.006;2023-05-02T02:16:33;15.20;;;11.47;;
2558;SDS011;1289;53.488;10.006;2023-05-02T02:19:03;17.03;;;10.00;;
2558;SDS011;1289;53.488;10.006;2023-05-02T02:21:33;12.87;;;9.87;;
2558;SDS011;1289;53.488;10.006;2023-05-02T02:24:03;16.77;;;10.70;;
2558;SDS011;1289;53.488;10.006;2023-05-02T02:26:31;13.10;;;10.80;;
2558;SDS011;1289;53.488;10.006;2023-05-02T02:28:57;13.10;;;9.57;;
2558;SDS011;1289;53.488;10.006;2023-05-02T02:31:29;13.90;;;10.33;;
2558;SDS011;1289;53.488;10.006;2023-05-02T02:33:56;14.33;;;11.00;;
2558;SDS011;1289;53.488;10.006;2023-05-02T02:36:23;12.27;;;10.23;;
2558;SDS011;1289;53.488;10.006;2023-05-02T02:38:59;15.80;;;10.70;;
2558;SDS011;1289;53.488;10.006;2023-05-02T02:41:31;16.40;;;10.90;;
2558;SDS011;1289;53.488;10.006;2023-05-02T02:44:03;12.20;;;8.90;;
2558;SDS011;1289;53.488;10.006;2023-05-02T02:46:33;11.30;;;8.80;;
2558;SDS011;1289;53.488;10.006;2023-05-02T02:49:10;7.30;;;6.60;;
2558;SDS011;1289;53.488;10.006;2023-05-02T02:51:43;6.93;;;6.23;;
2558;SDS011;1289;53.488;10.006;2023-05-02T02:54:13;8.90;;;7.07;;
2558;SDS011;1289;53.488;10.006;2023-05-02T02:56:46;8.17;;;7.37;;
2558;SDS011;1289;53.488;10.006;2023-05-02T02:59:15;8.93;;;8.13;;
2558;SDS011;1289;53.488;10.006;2023-05-02T03:01:45;8.60;;;7.80;;
2558;SDS011;1289;53.488;10.006;2023-05-02T03:04:14;12.23;;;9.80;;
2558;SDS011;1289;53.488;10.006;2023-05-02T03:06:41;12.23;;;9.33;;
2558;SDS011;1289;53.488;10.006;2023-05-02T03:09:14;10.30;;;7.10;;
2558;SDS011;1289;53.488;10.006;2023-05-02T03:11:44;13.30;;;7.70;;
2558;SDS011;1289;53.488;10.006;2023-05-02T03:14:12;11.73;;;6.80;;
2558;SDS011;1289;53.488;10.006;2023-05-02T03:16:39;10.07;;;6.13;;
2558;SDS011;1289;53.488;10.006;2023-05-02T03:19:11;9.93;;;6.27;;
2558;SDS011;1289;53.488;10.006;2023-05-02T03:21:38;7.57;;;5.77;;
2558;SDS011;1289;53.488;10.006;2023-05-02T03:24:12;8.17;;;6.90;;
2558;SDS011;1289;53.488;10.006;2023-05-02T03:26:40;9.93;;;7.47;;
2558;SDS011;1289;53.488;10.006;2023-05-02T03:29:10;8.67;;;6.63;;
2558;SDS011;1289;53.488;10.006;2023-05-02T03:31:39;10.33;;;5.80;;
2558;SDS011;1289;53.488;10.006;2023-05-02T03:34:06;11.80;;;6.10;;
2558;SDS011;1289;53.488;10.006;2023-05-02T03:36:34;10.73;;;6.67;;
2558;SDS011;1289;53.488;10.006;2023-05-02T03:39:01;14.53;;;6.73;;
2558;SDS011;1289;53.488;10.006;2023-05-02T03:41:28;7.23;;;6.00;;
2558;SDS011;1289;53.488;10.006;2023-05-02T03:44:02;7.73;;;5.83;;
2558;SDS011;1289;53.488;10.006;2023-05-02T03:46:30;12.30;;;6.03;;
2558;SDS011;1289;53.488;10.006;2023-05-02T03:48:57;10.43;;;6.20;;
2558;SDS011;1289;53.488;10.006;2023-05-02T03:51:24;12.67;;;6.80;;
2558;SDS011;1289;53.488;10.006;2023-05-02T03:53:53;16.37;;;6.87;;
2558;SDS011;1289;53.488;10.006;2023-05-02T03:56:20;11.83;;;5.93;;
2558;SDS011;1289;53.488;10.006;2023-05-02T03:58:57;14.80;;;7.20;;
2558;SDS011;1289;53.488;10.006;2023-05-02T04:01:26;10.93;;;6.70;;
2558;SDS011;1289;53.488;10.006;2023-05-02T04:03:54;12.90;;;10.43;;
2558;SDS011;1289;53.488;10.006;2023-05-02T04:06:23;13.27;;;7.00;;
2558;SDS011;1289;53.488;10.006;2023-05-02T04:08:57;12.63;;;6.27;;
2558;SDS011;1289;53.488;10.006;2023-05-02T04:11:28;20.70;;;7.40;;
2558;SDS011;1289;53.488;10.006;2023-05-02T04:13:55;20.47;;;7.30;;
2558;SDS011;1289;53.488;10.006;2023-05-02T04:16:22;14.63;;;7.03;;
2558;SDS011;1289;53.488;10.006;2023-05-02T04:18:50;16.60;;;6.13;;
2558;SDS011;1289;53.488;10.006;2023-05-02T04:21:18;15.07;;;7.13;;
2558;SDS011;1289;53.488;10.006;2023-05-02T04:23:46;11.60;;;6.43;;
2558;SDS011;1289;53.488;10.006;2023-05-02T04:26:13;15.40;;;6.70;;
2558;SDS011;1289;53.488;10.006;2023-05-02T04:28:47;14.60;;;7.17;;
2558;SDS011;1289;53.488;10.006;2023-05-02T04:31:15;10.13;;;7.57;;
2558;SDS011;1289;53.488;10.006;2023-05-02T04:33:43;18.90;;;7.10;;
2558;SDS011;1289;53.488;10.006;2023-05-02T04:36:12;18.47;;;7.50;;
2558;SDS011;1289;53.488;10.006;2023-05-02T04:38:42;12.70;;;6.93;;
2558;SDS011;1289;53.488;10.006;2023-05-02T04:41:09;13.63;;;6.27;;
2558;SDS011;1289;53.488;10.006;2023-05-02T04:43:44;11.70;;;6.80;;
2558;SDS011;1289;53.488;10.006;2023-05-02T04:46:12;9.07;;;6.17;;
2558;SDS011;1289;53.488;10.006;2023-05-02T04:48:39;13.90;;;6.47;;
2558;SDS011;1289;53.488;10.006;2023-05-02T04:51:06;12.17;;;6.00;;
2558;SDS011;1289;53.488;10.006;2023-05-02T04:53:35;9.20;;;5.73;;
2558;SDS011;1289;53.488;10.006;2023-05-02T04:56:02;13.00;;;6.43;;
2558;SDS011;1289;53.488;10.006;2023-05-02T04:58:32;9.57;;;6.30;;
2558;SDS011;1289;53.488;10.006;2023-05-02T05:01:03;12.50;;;6.87;;
2558;SDS011;1289;53.488;10.006;2023-05-02T05:03:30;10.90;;;6.30;;
2558;SDS011;1289;53.488;10.006;2023-05-02T05:05:57;16.83;;;5.87;;
2558;SDS011;1289;53.488;10.006;2023-05-02T05:08:24;17.03;;;7.03;;
2558;SDS011;1289;53.488;10.006;2023-05-02T05:10:52;14.10;;;6.90;;
2558;SDS011;1289;53.488;10.006;2023-05-02T05:13:20;8.53;;;6.20;;
2558;SDS011;1289;53.488;10.006;2023-05-02T05:15:48;14.47;;;6.60;;
2558;SDS011;1289;53.488;10.006;2023-05-02T05:18:16;12.13;;;5.40;;
2558;SDS011;1289;53.488;10.006;2023-05-02T05:20:43;17.33;;;6.23;;
2558;SDS011;1289;53.488;10.006;2023-05-02T05:23:10;11.30;;;5.93;;
2558;SDS011;1289;53.488;10.006;2023-05-02T05:25:37;9.00;;;6.70;;
2558;SDS011;1289;53.488;10.006;2023-05-02T05:28:05;18.87;;;7.03;;
2558;SDS011;1289;53.488;10.006;2023-05-02T05:30:34;12.00;;;6.63;;
2558;SDS011;1289;53.488;10.006;2023-05-02T05:33:04;12.27;;;6.40;;
2558;SDS011;1289;53.488;10.006;2023-05-02T05:35:30;7.63;;;6.20;;
2558;SDS011;1289;53.488;10.006;2023-05-02T05:37:59;13.67;;;6.20;;
2558;SDS011;1289;53.488;10.006;2023-05-02T05:40:27;12.97;;;6.53;;
2558;SDS011;1289;53.488;10.006;2023-05-02T05:42:56;12.27;;;6.60;;
2558;SDS011;1289;53.488;10.006;2023-05-02T05:45:29;14.10;;;6.43;;
2558;SDS011;1289;53.488;10.006;2023-05-02T05:47:55;14.07;;;6.00;;
2558;SDS011;1289;53.488;10.006;2023-05-02T05:50:24;9.10;;;5.93;;
2558;SDS011;1289;53.488;10.006;2023-05-02T05:52:51;13.40;;;7.80;;
2558;SDS011;1289;53.488;10.006;2023-05-02T05:55:18;10.27;;;5.80;;
2558;SDS011;1289;53.488;10.006;2023-05-02T05:57:45;12.97;;;6.70;;
2558;SDS011;1289;53.488;10.006;2023-05-02T06:00:13;11.50;;;6.40;;
2558;SDS011;1289;53.488;10.006;2023-05-02T06:02:47;13.57;;;6.77;;
2558;SDS011;1289;53.488;10.006;2023-05-02T06:05:23;8.00;;;5.93;;
2558;SDS011;1289;53.488;10.006;2023-05-02T06:07:50;12.63;;;7.17;;
2558;SDS011;1289;53.488;10.006;2023-05-02T06:10:17;12.37;;;7.13;;
2558;SDS011;1289;53.488;10.006;2023-05-02T06:12:44;9.80;;;7.13;;
2558;SDS011;1289;53.488;10.006;2023-05-02T06:15:12;9.67;;;6.87;;
2558;SDS011;1289;53.488;10.006;2023-05-02T06:17:39;8.40;;;6.93;;
2558;SDS011;1289;53.488;10.006;2023-05-02T06:20:08;7.90;;;7.10;;
2558;SDS011;1289;53.488;10.006;2023-05-02T06:22:34;11.47;;;8.47;;
2558;SDS011;1289;53.488;10.006;2023-05-02T06:25:01;8.63;;;6.80;;
2558;SDS011;1289;53.488;10.006;2023-05-02T06:27:29;14.73;;;7.43;;
2558;SDS011;1289;53.488;10.006;2023-05-02T06:29:56;8.07;;;7.23;;
2558;SDS011;1289;53.488;10.006;2023-05-02T06:32:22;9.47;;;6.57;;
2558;SDS011;1289;53.488;10.006;2023-05-02T06:34:49;12.97;;;7.27;;
2558;SDS011;1289;53.488;10.006;2023-05-02T06:37:17;11.80;;;6.17;;
2558;SDS011;1289;53.488;10.006;2023-05-02T06:39:43;10.03;;;6.93;;
2558;SDS011;1289;53.488;10.006;2023-05-02T06:42:10;6.57;;;4.47;;
2558;SDS011;1289;53.488;10.006;2023-05-02T06:44:37;9.17;;;5.80;;
2558;SDS011;1289;53.488;10.006;2023-05-02T06:47:03;8.47;;;5.60;;
2558;SDS011;1289;53.488;10.006;2023-05-02T06:49:30;9.67;;;4.80;;
2558;SDS011;1289;53.488;10.006;2023-05-02T06:51:57;8.53;;;5.20;;
2558;SDS011;1289;53.488;10.006;2023-05-02T06:54:25;5.30;;;4.27;;
2558;SDS011;1289;53.488;10.006;2023-05-02T06:56:51;5.87;;;5.33;;
2558;SDS011;1289;53.488;10.006;2023-05-02T06:59:18;5.50;;;4.77;;
2558;SDS011;1289;53.488;10.006;2023-05-02T07:01:44;7.73;;;5.27;;
2558;SDS011;1289;53.488;10.006;2023-05-02T07:04:11;7.67;;;5.10;;
2558;SDS011;1289;53.488;10.006;2023-05-02T07:06:38;6.53;;;4.83;;
2558;SDS011;1289;53.488;10.006;2023-05-02T07:09:05;5.60;;;4.90;;
2558;SDS011;1289;53.488;10.006;2023-05-02T07:11:33;6.40;;;4.73;;
2558;SDS011;1289;53.488;10.006;2023-05-02T07:14:00;5.40;;;4.90;;
2558;SDS011;1289;53.488;10.006;2023-05-02T07:16:26;7.40;;;4.90;;
2558;SDS011;1289;53.488;10.006;2023-05-02T07:18:53;6.87;;;4.70;;
2558;SDS011;1289;53.488;10.006;2023-05-02T07:21:20;5.80;;;4.77;;
2558;SDS011;1289;53.488;10.006;2023-05-02T07:23:46;8.60;;;5.00;;
2558;SDS011;1289;53.488;10.006;2023-05-02T07:26:13;9.83;;;5.77;;
2558;SDS011;1289;53.488;10.006;2023-05-02T07:28:41;5.33;;;4.93;;
2558;SDS011;1289;53.488;10.006;2023-05-02T07:31:08;6.37;;;4.53;;
2558;SDS011;1289;53.488;10.006;2023-05-02T07:33:34;8.03;;;5.20;;
2558;SDS011;1289;53.488;10.006;2023-05-02T07:36:01;5.10;;;3.60;;
2558;SDS011;1289;53.488;10.006;2023-05-02T07:38:27;5.37;;;4.00;;
2558;SDS011;1289;53.488;10.006;2023-05-02T07:40:56;6.37;;;4.33;;
2558;SDS011;1289;53.488;10.006;2023-05-02T07:43:23;6.17;;;5.13;;
2558;SDS011;1289;53.488;10.006;2023-05-02T07:45:51;9.40;;;4.37;;
2558;SDS011;1289;53.488;10.006;2023-05-02T07:48:18;6.80;;;4.10;;
2558;SDS011;1289;53.488;10.006;2023-05-02T07:50:45;14.50;;;5.03;;
2558;SDS011;1289;53.488;10.006;2023-05-02T07:53:11;4.97;;;4.33;;
2558;SDS011;1289;53.488;10.006;2023-05-02T07:55:38;5.97;;;4.23;;
2558;SDS011;1289;53.488;10.006;2023-05-02T07:58:05;9.00;;;5.47;;
2558;SDS011;1289;53.488;10.006;2023-05-02T08:00:31;5.30;;;4.90;;
2558;SDS011;1289;53.488;10.006;2023-05-02T08:03:00;5.33;;;4.83;;
2558;SDS011;1289;53.488;10.006;2023-05-02T08:05:26;7.90;;;4.50;;
2558;SDS011;1289;53.488;10.006;2023-05-02T08:07:53;7.33;;;4.87;;
2558;SDS011;1289;53.488;10.006;2023-05-02T08:10:20;9.13;;;4.60;;
2558;SDS011;1289;53.488;10.006;2023-05-02T08:12:48;5.37;;;4.97;;
2558;SDS011;1289;53.488;10.006;2023-05-02T08:15:14;7.30;;;5.30;;
2558;SDS011;1289;53.488;10.006;2023-05-02T08:17:41;5.53;;;5.03;;
2558;SDS011;1289;53.488;10.006;2023-05-02T08:20:09;7.50;;;5.73;;
2558;SDS011;1289;53.488;10.006;2023-05-02T08:22:36;5.70;;;5.07;;
2558;SDS011;1289;53.488;10.006;2023-05-02T08:25:03;5.50;;;5.00;;
2558;SDS011;1289;53.488;10.006;2023-05-02T08:27:37;6.40;;;5.00;;
2558;SDS011;1289;53.488;10.006;2023-05-02T08:30:04;5.70;;;4.90;;
2558;SDS011;1289;53.488;10.006;2023-05-02T08:32:31;6.43;;;4.90;;
2558;SDS011;1289;53.488;10.006;2023-05-02T08:34:58;5.93;;;5.10;;
2558;SDS011;1289;53.488;10.006;2023-05-02T08:37:26;6.37;;;5.77;;
2558;SDS011;1289;53.488;10.006;2023-05-02T08:39:53;9.30;;;5.57;;
2558;SDS011;1289;53.488;10.006;2023-05-02T08:42:20;5.10;;;4.70;;
2558;SDS011;1289;53.488;10.006;2023-05-02T08:44:47;12.37;;;4.13;;
2558;SDS011;1289;53.488;10.006;2023-05-02T08:47:14;4.67;;;4.10;;
2558;SDS011;1289;53.488;10.006;2023-05-02T08:49:41;6.00;;;3.70;;
2558;SDS011;1289;53.488;10.006;2023-05-02T08:52:08;6.07;;;3.93;;
2558;SDS011;1289;53.488;10.006;2023-05-02T08:54:37;11.20;;;4.53;;
2558;SDS011;1289;53.488;10.006;2023-05-02T08:57:04;3.93;;;3.63;;
2558;SDS011;1289;53.488;10.006;2023-05-02T08:59:31;6.73;;;3.90;;
2558;SDS011;1289;53.488;10.006;2023-05-02T09:01:58;5.53;;;3.67;;
2558;SDS011;1289;53.488;10.006;2023-05-02T09:04:28;5.27;;;3.70;;
2558;SDS011;1289;53.488;10.006;2023-05-02T09:06:56;4.53;;;4.00;;
2558;SDS011;1289;53.488;10.006;2023-05-02T09:09:23;4.13;;;3.60;;
2558;SDS011;1289;53.488;10.006;2023-05-02T09:11:52;4.30;;;3.30;;
2558;SDS011;1289;53.488;10.006;2023-05-02T09:14:18;7.73;;;3.70;;
2558;SDS011;1289;53.488;10.006;2023-05-02T09:16:45;6.37;;;3.60;;
2558;SDS011;1289;53.488;10.006;2023-05-02T09:19:22;4.23;;;3.80;;
2558;SDS011;1289;53.488;10.006;2023-05-02T09:21:50;4.43;;;3.43;;
2558;SDS011;1289;53.488;10.006;2023-05-02T09:24:16;3.63;;;2.83;;
2558;SDS011;1289;53.488;10.006;2023-05-02T09:26:55;5.43;;;3.40;;
2558;SDS011;1289;53.488;10.006;2023-05-02T09:29:25;7.63;;;3.47;;
2558;SDS011;1289;53.488;10.006;2023-05-02T09:31:52;8.50;;;3.93;;
2558;SDS011;1289;53.488;10.006;2023-05-02T09:34:19;4.40;;;3.10;;
2558;SDS011;1289;53.488;10.006;2023-05-02T09:36:46;4.60;;;3.47;;
2558;SDS011;1289;53.488;10.006;2023-05-02T09:39:16;3.60;;;3.30;;
2558;SDS011;1289;53.488;10.006;2023-05-02T09:41:44;5.00;;;3.10;;
2558;SDS011;1289;53.488;10.006;2023-05-02T09:44:13;3.53;;;3.17;;
2558;SDS011;1289;53.488;10.006;2023-05-02T09:46:42;3.67;;;3.33;;
2558;SDS011;1289;53.488;10.006;2023-05-02T09:49:10;5.70;;;3.00;;
2558;SDS011;1289;53.488;10.006;2023-05-02T09:51:43;3.93;;;3.00;;
2558;SDS011;1289;53.488;10.006;2023-05-02T09:54:10;3.50;;;3.10;;
2558;SDS011;1289;53.488;10.006;2023-05-02T09:56:53;6.10;;;3.60;;
2558;SDS011;1289;53.488;10.006;2023-05-02T09:59:22;7.27;;;3.90;;
2558;SDS011;1289;53.488;10.006;2023-05-02T10:01:53;4.87;;;2.87;;
2558;SDS011;1289;53.488;10.006;2023-05-02T10:04:22;4.10;;;2.87;;
2558;SDS011;1289;53.488;10.006;2023-05-02T10:06:49;6.13;;;3.10;;
2558;SDS011;1289;53.488;10.006;2023-05-02T10:09:16;7.20;;;2.93;;
2558;SDS011;1289;53.488;10.006;2023-05-02T10:11:44;6.10;;;3.13;;
2558;SDS011;1289;53.488;10.006;2023-05-02T10:14:11;4.03;;;3.10;;
2558;SDS011;1289;53.488;10.006;2023-05-02T10:16:43;4.70;;;3.80;;
2558;SDS011;1289;53.488;10.006;2023-05-02T10:19:12;3.50;;;3.20;;
2558;SDS011;1289;53.488;10.006;2023-05-02T10:21:45;6.90;;;3.57;;
2558;SDS011;1289;53.488;10.006;2023-05-02T10:24:12;5.07;;;3.50;;
2558;SDS011;1289;53.488;10.006;2023-05-02T10:26:39;4.07;;;3.20;;
2558;SDS011;1289;53.488;10.006;2023-05-02T10:29:05;4.20;;;3.37;;
2558;SDS011;1289;53.488;10.006;2023-05-02T10:31:32;6.17;;;3.10;;
2558;SDS011;1289;53.488;10.006;2023-05-02T10:34:03;5.67;;;3.10;;
2558;SDS011;1289;53.488;10.006;2023-05-02T10:36:30;5.33;;;3.23;;
2558;SDS011;1289;53.488;10.006;2023-05-02T10:38:57;3.33;;;2.73;;
2558;SDS011;1289;53.488;10.006;2023-05-02T10:41:24;3.53;;;3.10;;
2558;SDS011;1289;53.488;10.006;2023-05-02T10:43:52;5.30;;;3.30;;
2558;SDS011;1289;53.488;10.006;2023-05-02T10:46:28;7.57;;;3.33;;
2558;SDS011;1289;53.488;10.006;2023-05-02T10:48:59;5.53;;;3.30;;
2558;SDS011;1289;53.488;10.006;2023-05-02T10:51:28;4.27;;;3.37;;
2558;SDS011;1289;53.488;10.006;2023-05-02T10:57:00;4.10;;;3.10;;
2558;SDS011;1289;53.488;10.006;2023-05-02T10:59:29;7.87;;;3.50;;
2558;SDS011;1289;53.488;10.006;2023-05-02T11:01:56;3.77;;;3.40;;
2558;SDS011;1289;53.488;10.006;2023-05-02T11:04:23;5.43;;;3.50;;
2558;SDS011;1289;53.488;10.006;2023-05-02T11:09:45;4.33;;;3.07;;
2558;SDS011;1289;53.488;10.006;2023-05-02T11:12:12;5.83;;;3.37;;
2558;SDS011;1289;53.488;10.006;2023-05-02T11:15:10;6.53;;;3.50;;
2558;SDS011;1289;53.488;10.006;2023-05-02T11:20:24;5.50;;;3.53;;
2558;SDS011;1289;53.488;10.006;2023-05-02T11:22:52;3.70;;;3.17;;
2558;SDS011;1289;53.488;10.006;2023-05-02T11:25:29;6.43;;;3.13;;
2558;SDS011;1289;53.488;10.006;2023-05-02T11:27:58;4.27;;;3.53;;
2558;SDS011;1289;53.488;10.006;2023-05-02T11:30:41;7.00;;;3.00;;
2558;SDS011;1289;53.488;10.006;2023-05-02T11:33:12;4.70;;;3.43;;
2558;SDS011;1289;53.488;10.006;2023-05-02T11:35:41;4.83;;;2.70;;
2558;SDS011;1289;53.488;10.006;2023-05-02T11:38:09;3.63;;;3.00;;
2558;SDS011;1289;53.488;10.006;2023-05-02T11:40:37;4.00;;;2.80;;
2558;SDS011;1289;53.488;10.006;2023-05-02T11:43:12;5.07;;;3.00;;
2558;SDS011;1289;53.488;10.006;2023-05-02T11:45:39;5.77;;;3.60;;
2558;SDS011;1289;53.488;10.006;2023-05-02T11:48:08;8.70;;;3.40;;
2558;SDS011;1289;53.488;10.006;2023-05-02T11:50:40;4.67;;;3.93;;
2558;SDS011;1289;53.488;10.006;2023-05-02T11:53:09;7.80;;;3.90;;
2558;SDS011;1289;53.488;10.006;2023-05-02T11:55:36;8.13;;;3.70;;
2558;SDS011;1289;53.488;10.006;2023-05-02T11:58:02;4.23;;;3.20;;
2558;SDS011;1289;53.488;10.006;2023-05-02T12:00:30;6.13;;;3.60;;
2558;SDS011;1289;53.488;10.006;2023-05-02T12:02:57;3.37;;;3.00;;
2558;SDS011;1289;53.488;10.006;2023-05-02T12:05:27;3.23;;;2.93;;
2558;SDS011;1289;53.488;10.006;2023-05-02T12:07:54;4.10;;;2.80;;
2558;SDS011;1289;53.488;10.006;2023-05-02T12:10:21;3.90;;;3.07;;
2558;SDS011;1289;53.488;10.006;2023-05-02T12:12:47;3.60;;;3.03;;
2558;SDS011;1289;53.488;10.006;2023-05-02T12:15:14;4.83;;;3.40;;
2558;SDS011;1289;53.488;10.006;2023-05-02T12:17:46;4.87;;;3.83;;
2558;SDS011;1289;53.488;10.006;2023-05-02T12:20:16;4.10;;;3.03;;
2558;SDS011;1289;53.488;10.006;2023-05-02T12:22:42;4.70;;;3.17;;
2558;SDS011;1289;53.488;10.006;2023-05-02T12:25:09;6.07;;;3.07;;
2558;SDS011;1289;53.488;10.006;2023-05-02T12:27:36;3.43;;;3.13;;
2558;SDS011;1289;53.488;10.006;2023-05-02T12:30:03;5.03;;;2.93;;
2558;SDS011;1289;53.488;10.006;2023-05-02T12:32:31;3.27;;;3.07;;
2558;SDS011;1289;53.488;10.006;2023-05-02T12:35:00;3.83;;;2.90;;
2558;SDS011;1289;53.488;10.006;2023-05-02T12:37:28;6.23;;;3.23;;
2558;SDS011;1289;53.488;10.006;2023-05-02T12:39:55;6.03;;;3.23;;
2558;SDS011;1289;53.488;10.006;2023-05-02T12:42:22;4.10;;;3.57;;
2558;SDS011;1289;53.488;10.006;2023-05-02T12:44:50;3.10;;;2.80;;
2558;SDS011;1289;53.488;10.006;2023-05-02T12:47:17;7.40;;;3.23;;
2558;SDS011;1289;53.488;10.006;2023-05-02T12:49:48;5.13;;;3.10;;
2558;SDS011;1289;53.488;10.006;2023-05-02T12:52:16;4.27;;;2.87;;
2558;SDS011;1289;53.488;10.006;2023-05-02T12:54:43;3.33;;;2.87;;
2558;SDS011;1289;53.488;10.006;2023-05-02T12:57:10;3.30;;;3.00;;
2558;SDS011;1289;53.488;10.006;2023-05-02T12:59:41;7.80;;;4.30;;
2558;SDS011;1289;53.488;10.006;2023-05-02T13:02:08;4.03;;;2.93;;
2558;SDS011;1289;53.488;10.006;2023-05-02T13:04:35;5.57;;;2.83;;
2558;SDS011;1289;53.488;10.006;2023-05-02T13:07:02;5.80;;;3.50;;
2558;SDS011;1289;53.488;10.006;2023-05-02T13:09:30;3.13;;;2.70;;
2558;SDS011;1289;53.488;10.006;2023-05-02T13:11:57;3.60;;;3.30;;
2558;SDS011;1289;53.488;10.006;2023-05-02T13:14:24;4.53;;;2.97;;
2558;SDS011;1289;53.488;10.006;2023-05-02T13:16:51;3.17;;;2.83;;
2558;SDS011;1289;53.488;10.006;2023-05-02T13:19:19;4.07;;;2.70;;
2558;SDS011;1289;53.488;10.006;2023-05-02T13:21:45;4.80;;;2.73;;
2558;SDS011;1289;53.488;10.006;2023-05-02T13:24:12;3.17;;;2.90;;
2558;SDS011;1289;53.488;10.006;2023-05-02T13:26:40;3.70;;;2.97;;
2558;SDS011;1289;53.488;10.006;2023-05-02T13:29:07;4.47;;;3.10;;
2558;SDS011;1289;53.488;10.006;2023-05-02T13:31:35;3.20;;;2.90;;
2558;SDS011;1289;53.488;10.006;2023-05-02T13:34:02;11.73;;;3.87;;
2558;SDS011;1289;53.488;10.006;2023-05-02T13:36:28;3.27;;;2.97;;
2558;SDS011;1289;53.488;10.006;2023-05-02T13:38:55;2.90;;;2.60;;
2558;SDS011;1289;53.488;10.006;2023-05-02T13:41:22;3.80;;;3.33;;
2558;SDS011;1289;53.488;10.006;2023-05-02T13:43:50;3.50;;;3.20;;
2558;SDS011;1289;53.488;10.006;2023-05-02T13:46:17;3.50;;;3.20;;
2558;SDS011;1289;53.488;10.006;2023-05-02T13:48:43;3.53;;;3.23;;
2558;SDS011;1289;53.488;10.006;2023-05-02T13:51:10;3.50;;;3.20;;
2558;SDS011;1289;53.488;10.006;2023-05-02T13:53:37;3.40;;;3.20;;
2558;SDS011;1289;53.488;10.006;2023-05-02T13:56:03;4.13;;;3.17;;
2558;SDS011;1289;53.488;10.006;2023-05-02T13:58:30;3.67;;;3.30;;
2558;SDS011;1289;53.488;10.006;2023-05-02T14:00:58;4.43;;;4.10;;
2558;SDS011;1289;53.488;10.006;2023-05-02T14:03:25;10.20;;;4.67;;
2558;SDS011;1289;53.488;10.006;2023-05-02T14:05:52;7.40;;;3.57;;
2558;SDS011;1289;53.488;10.006;2023-05-02T14:08:18;3.27;;;2.97;;
2558;SDS011;1289;53.488;10.006;2023-05-02T14:10:45;6.10;;;3.50;;
2558;SDS011;1289;53.488;10.006;2023-05-02T14:13:11;6.20;;;3.43;;
2558;SDS011;1289;53.488;10.006;2023-05-02T14:15:38;4.67;;;3.60;;
2558;SDS011;1289;53.488;10.006;2023-05-02T14:18:06;3.50;;;3.20;;
2558;SDS011;1289;53.488;10.006;2023-05-02T14:20:32;4.60;;;3.10;;
2558;SDS011;1289;53.488;10.006;2023-05-02T14:22:59;3.93;;;3.47;;
2558;SDS011;1289;53.488;10.006;2023-05-02T14:25:25;4.27;;;2.90;;
2558;SDS011;1289;53.488;10.006;2023-05-02T14:27:52;8.20;;;3.80;;
2558;SDS011;1289;53.488;10.006;2023-05-02T14:30:19;5.30;;;3.20;;
2558;SDS011;1289;53.488;10.006;2023-05-02T14:32:45;4.90;;;3.17;;
2558;SDS011;1289;53.488;10.006;2023-05-02T14:35:13;3.50;;;3.13;;
2558;SDS011;1289;53.488;10.006;2023-05-02T14:37:40;3.37;;;3.07;;
2558;SDS011;1289;53.488;10.006;2023-05-02T14:40:09;4.00;;;3.60;;
2558;SDS011;1289;53.488;10.006;2023-05-02T14:42:36;5.73;;;3.70;;
2558;SDS011;1289;53.488;10.006;2023-05-02T14:45:03;3.73;;;3.30;;
2558;SDS011;1289;53.488;10.006;2023-05-02T14:47:30;4.70;;;3.70;;
2558;SDS011;1289;53.488;10.006;2023-05-02T14:49:57;7.87;;;3.50;;
2558;SDS011;1289;53.488;10.006;2023-05-02T14:52:25;7.53;;;4.33;;
2558;SDS011;1289;53.488;10.006;2023-05-02T14:54:51;3.93;;;3.37;;
2558;SDS011;1289;53.488;10.006;2023-05-02T14:57:18;4.90;;;3.30;;
2558;SDS011;1289;53.488;10.006;2023-05-02T14:59:45;7.23;;;3.60;;
2558;SDS011;1289;53.488;10.006;2023-05-02T15:02:12;4.90;;;4.10;;
2558;SDS011;1289;53.488;10.006;2023-05-02T15:04:38;5.13;;;4.20;;
2558;SDS011;1289;53.488;10.006;2023-05-02T15:07:05;4.20;;;2.83;;